Mc Faddin, Texas
Current Conditions -  °F | °C
As of 6:35 PM on Monday 24 Nov 2014 (Local Time) from KPKV Reporting Station
Overcast Overcast  
Wind Chill: 57°   Ceiling: 12000
Heat Index: 57°   Visibility: 10mi
Dew Point: 47°   Wind: 3mph
Humidity: 70%   Direction: 10°N
Pressure: 30.07"   Gusts: NA
Location:  28.5526°N, 97.018°W
Report Text: KPKV 250035Z AUTO 01003KT 10SM OVC120 14/08 A3007 RMK AO2 T01370083
Loading
Personal Weather Stations






























Interactive Weather Map New forecast layout! Learn more

10-Day Weather Forecast

Advertisements
Track Severe Weather on mobile